sensor_id;sensor_type;location;lat;lon;timestamp;pressure;altitude;pressure_sealevel;temperature
64960;BMP180;51487;52.266;10.542;2024-03-17T00:01:03;101394.00;;;4.60
64960;BMP180;51487;52.266;10.542;2024-03-17T00:03:29;101394.00;;;4.60
64960;BMP180;51487;52.266;10.542;2024-03-17T00:06:00;101392.00;;;4.50
64960;BMP180;51487;52.266;10.542;2024-03-17T00:08:26;101403.00;;;4.60
64960;BMP180;51487;52.266;10.542;2024-03-17T00:10:53;101401.00;;;4.60
64960;BMP180;51487;52.266;10.542;2024-03-17T00:13:23;101397.00;;;4.60
64960;BMP180;51487;52.266;10.542;2024-03-17T00:15:49;101405.00;;;4.60
64960;BMP180;51487;52.266;10.542;2024-03-17T00:18:16;101410.00;;;4.60
64960;BMP180;51487;52.266;10.542;2024-03-17T00:20:42;101408.00;;;4.70
64960;BMP180;51487;52.266;10.542;2024-03-17T00:23:09;101399.00;;;4.70
64960;BMP180;51487;52.266;10.542;2024-03-17T00:25:37;101407.00;;;4.70
64960;BMP180;51487;52.266;10.542;2024-03-17T00:28:04;101396.00;;;4.50
64960;BMP180;51487;52.266;10.542;2024-03-17T00:30:29;101392.00;;;4.60
64960;BMP180;51487;52.266;10.542;2024-03-17T00:32:56;101394.00;;;4.60
64960;BMP180;51487;52.266;10.542;2024-03-17T00:35:23;101401.00;;;4.60
64960;BMP180;51487;52.266;10.542;2024-03-17T00:37:50;101387.00;;;4.50
64960;BMP180;51487;52.266;10.542;2024-03-17T00:40:17;101403.00;;;4.50
64960;BMP180;51487;52.266;10.542;2024-03-17T00:42:43;101399.00;;;4.50
64960;BMP180;51487;52.266;10.542;2024-03-17T00:45:11;101399.00;;;4.50
64960;BMP180;51487;52.266;10.542;2024-03-17T00:47:37;101395.00;;;4.40
64960;BMP180;51487;52.266;10.542;2024-03-17T00:50:04;101403.00;;;4.40
64960;BMP180;51487;52.266;10.542;2024-03-17T00:52:31;101402.00;;;4.30
64960;BMP180;51487;52.266;10.542;2024-03-17T00:54:57;101407.00;;;4.20
64960;BMP180;51487;52.266;10.542;2024-03-17T00:57:23;101409.00;;;4.20
64960;BMP180;51487;52.266;10.542;2024-03-17T00:59:49;101408.00;;;4.20
64960;BMP180;51487;52.266;10.542;2024-03-17T01:02:15;101404.00;;;4.10
64960;BMP180;51487;52.266;10.542;2024-03-17T01:04:42;101410.00;;;4.10
64960;BMP180;51487;52.266;10.542;2024-03-17T01:07:11;101400.00;;;4.00
64960;BMP180;51487;52.266;10.542;2024-03-17T01:09:37;101407.00;;;4.00
64960;BMP180;51487;52.266;10.542;2024-03-17T01:12:03;101413.00;;;4.00
64960;BMP180;51487;52.266;10.542;2024-03-17T01:14:30;101408.00;;;4.10
64960;BMP180;51487;52.266;10.542;2024-03-17T01:16:56;101404.00;;;4.10
64960;BMP180;51487;52.266;10.542;2024-03-17T01:19:23;101405.00;;;4.10
64960;BMP180;51487;52.266;10.542;2024-03-17T01:21:49;101401.00;;;4.10
64960;BMP180;51487;52.266;10.542;2024-03-17T01:24:17;101408.00;;;4.10
64960;BMP180;51487;52.266;10.542;2024-03-17T01:26:43;101403.00;;;4.10
64960;BMP180;51487;52.266;10.542;2024-03-17T01:29:08;101392.00;;;4.20
64960;BMP180;51487;52.266;10.542;2024-03-17T01:31:34;101391.00;;;4.20
64960;BMP180;51487;52.266;10.542;2024-03-17T01:34:00;101394.00;;;4.20
64960;BMP180;51487;52.266;10.542;2024-03-17T01:36:26;101396.00;;;4.10
64960;BMP180;51487;52.266;10.542;2024-03-17T01:38:51;101401.00;;;4.10
64960;BMP180;51487;52.266;10.542;2024-03-17T01:41:17;101400.00;;;4.00
64960;BMP180;51487;52.266;10.542;2024-03-17T01:43:42;101405.00;;;4.00
64960;BMP180;51487;52.266;10.542;2024-03-17T01:46:12;101410.00;;;4.10
64960;BMP180;51487;52.266;10.542;2024-03-17T01:48:39;101395.00;;;4.00
64960;BMP180;51487;52.266;10.542;2024-03-17T01:51:06;101400.00;;;4.00
64960;BMP180;51487;52.266;10.542;2024-03-17T01:53:34;101395.00;;;3.90
64960;BMP180;51487;52.266;10.542;2024-03-17T01:56:00;101407.00;;;4.00
64960;BMP180;51487;52.266;10.542;2024-03-17T01:58:27;101393.00;;;4.00
64960;BMP180;51487;52.266;10.542;2024-03-17T02:00:56;101402.00;;;4.00
64960;BMP180;51487;52.266;10.542;2024-03-17T02:03:21;101390.00;;;4.00
64960;BMP180;51487;52.266;10.542;2024-03-17T02:05:47;101401.00;;;4.00
64960;BMP180;51487;52.266;10.542;2024-03-17T02:08:13;101389.00;;;4.00
64960;BMP180;51487;52.266;10.542;2024-03-17T02:10:38;101388.00;;;4.00
64960;BMP180;51487;52.266;10.542;2024-03-17T02:13:04;101396.00;;;4.00
64960;BMP180;51487;52.266;10.542;2024-03-17T02:15:31;101395.00;;;3.90
64960;BMP180;51487;52.266;10.542;2024-03-17T02:17:57;101397.00;;;3.90
64960;BMP180;51487;52.266;10.542;2024-03-17T02:20:22;101394.00;;;3.90
64960;BMP180;51487;52.266;10.542;2024-03-17T02:23:11;101397.00;;;3.90
64960;BMP180;51487;52.266;10.542;2024-03-17T02:25:37;101398.00;;;3.80
64960;BMP180;51487;52.266;10.542;2024-03-17T02:28:03;101387.00;;;3.80
64960;BMP180;51487;52.266;10.542;2024-03-17T02:30:30;101388.00;;;3.90
64960;BMP180;51487;52.266;10.542;2024-03-17T02:32:55;101393.00;;;3.90
64960;BMP180;51487;52.266;10.542;2024-03-17T02:35:22;101396.00;;;3.80
64960;BMP180;51487;52.266;10.542;2024-03-17T02:37:48;101388.00;;;3.80
64960;BMP180;51487;52.266;10.542;2024-03-17T02:40:14;101394.00;;;3.90
64960;BMP180;51487;52.266;10.542;2024-03-17T02:42:41;101390.00;;;3.80
64960;BMP180;51487;52.266;10.542;2024-03-17T02:45:08;101395.00;;;3.90
64960;BMP180;51487;52.266;10.542;2024-03-17T02:47:34;101389.00;;;3.80
64960;BMP180;51487;52.266;10.542;2024-03-17T02:50:00;101397.00;;;3.80
64960;BMP180;51487;52.266;10.542;2024-03-17T02:52:26;101390.00;;;3.90
64960;BMP180;51487;52.266;10.542;2024-03-17T02:54:52;101391.00;;;3.90
64960;BMP180;51487;52.266;10.542;2024-03-17T02:57:20;101390.00;;;3.90
64960;BMP180;51487;52.266;10.542;2024-03-17T02:59:48;101388.00;;;3.90
64960;BMP180;51487;52.266;10.542;2024-03-17T03:02:14;101395.00;;;3.80
64960;BMP180;51487;52.266;10.542;2024-03-17T03:04:39;101402.00;;;3.80
64960;BMP180;51487;52.266;10.542;2024-03-17T03:07:05;101395.00;;;3.90
64960;BMP180;51487;52.266;10.542;2024-03-17T03:09:30;101390.00;;;4.00
64960;BMP180;51487;52.266;10.542;2024-03-17T03:11:58;101395.00;;;3.90
64960;BMP180;51487;52.266;10.542;2024-03-17T03:14:28;101402.00;;;3.90
64960;BMP180;51487;52.266;10.542;2024-03-17T03:16:54;101393.00;;;3.90
64960;BMP180;51487;52.266;10.542;2024-03-17T03:19:20;101399.00;;;3.80
64960;BMP180;51487;52.266;10.542;2024-03-17T03:21:46;101399.00;;;3.70
64960;BMP180;51487;52.266;10.542;2024-03-17T03:24:14;101393.00;;;3.70
64960;BMP180;51487;52.266;10.542;2024-03-17T03:26:39;101397.00;;;3.60
64960;BMP180;51487;52.266;10.542;2024-03-17T03:29:06;101393.00;;;3.60
64960;BMP180;51487;52.266;10.542;2024-03-17T03:31:32;101394.00;;;3.50
64960;BMP180;51487;52.266;10.542;2024-03-17T03:33:59;101401.00;;;3.50
64960;BMP180;51487;52.266;10.542;2024-03-17T03:36:28;101388.00;;;3.40
64960;BMP180;51487;52.266;10.542;2024-03-17T03:38:54;101386.00;;;3.40
64960;BMP180;51487;52.266;10.542;2024-03-17T03:41:22;101393.00;;;3.40
64960;BMP180;51487;52.266;10.542;2024-03-17T03:43:48;101385.00;;;3.40
64960;BMP180;51487;52.266;10.542;2024-03-17T03:46:14;101395.00;;;3.40
64960;BMP180;51487;52.266;10.542;2024-03-17T03:48:40;101388.00;;;3.40
64960;BMP180;51487;52.266;10.542;2024-03-17T03:51:07;101392.00;;;3.40
64960;BMP180;51487;52.266;10.542;2024-03-17T03:53:33;101391.00;;;3.40
64960;BMP180;51487;52.266;10.542;2024-03-17T03:56:00;101396.00;;;3.40
64960;BMP180;51487;52.266;10.542;2024-03-17T03:58:34;101389.00;;;3.40
64960;BMP180;51487;52.266;10.542;2024-03-17T04:01:09;101382.00;;;3.40
64960;BMP180;51487;52.266;10.542;2024-03-17T04:03:40;101390.00;;;3.40
64960;BMP180;51487;52.266;10.542;2024-03-17T04:06:08;101390.00;;;3.40
64960;BMP180;51487;52.266;10.542;2024-03-17T04:08:37;101384.00;;;3.40
64960;BMP180;51487;52.266;10.542;2024-03-17T04:11:06;101386.00;;;3.30
64960;BMP180;51487;52.266;10.542;2024-03-17T04:13:33;101388.00;;;3.30
64960;BMP180;51487;52.266;10.542;2024-03-17T04:16:00;101395.00;;;3.20
64960;BMP180;51487;52.266;10.542;2024-03-17T04:18:26;101391.00;;;3.30
64960;BMP180;51487;52.266;10.542;2024-03-17T04:20:55;101402.00;;;3.30
64960;BMP180;51487;52.266;10.542;2024-03-17T04:23:23;101402.00;;;3.30
64960;BMP180;51487;52.266;10.542;2024-03-17T04:25:50;101402.00;;;3.50
64960;BMP180;51487;52.266;10.542;2024-03-17T04:28:16;101397.00;;;3.50
64960;BMP180;51487;52.266;10.542;2024-03-17T04:30:42;101399.00;;;3.50
64960;BMP180;51487;52.266;10.542;2024-03-17T04:33:09;101400.00;;;3.40
64960;BMP180;51487;52.266;10.542;2024-03-17T04:35:39;101405.00;;;3.50
64960;BMP180;51487;52.266;10.542;2024-03-17T04:38:06;101405.00;;;3.50
64960;BMP180;51487;52.266;10.542;2024-03-17T04:40:50;101401.00;;;3.60
64960;BMP180;51487;52.266;10.542;2024-03-17T04:43:16;101404.00;;;3.60
64960;BMP180;51487;52.266;10.542;2024-03-17T04:45:42;101403.00;;;3.70
64960;BMP180;51487;52.266;10.542;2024-03-17T04:48:09;101402.00;;;3.70
64960;BMP180;51487;52.266;10.542;2024-03-17T04:50:35;101397.00;;;3.70
64960;BMP180;51487;52.266;10.542;2024-03-17T04:53:00;101410.00;;;4.00
64960;BMP180;51487;52.266;10.542;2024-03-17T04:55:26;101408.00;;;4.10
64960;BMP180;51487;52.266;10.542;2024-03-17T04:57:52;101408.00;;;4.00
64960;BMP180;51487;52.266;10.542;2024-03-17T05:00:18;101401.00;;;3.90
64960;BMP180;51487;52.266;10.542;2024-03-17T05:02:44;101395.00;;;4.00
64960;BMP180;51487;52.266;10.542;2024-03-17T05:05:10;101404.00;;;4.00
64960;BMP180;51487;52.266;10.542;2024-03-17T05:07:39;101404.00;;;4.00
64960;BMP180;51487;52.266;10.542;2024-03-17T05:10:05;101409.00;;;4.10
64960;BMP180;51487;52.266;10.542;2024-03-17T05:12:31;101405.00;;;4.10
64960;BMP180;51487;52.266;10.542;2024-03-17T05:14:57;101411.00;;;4.30
64960;BMP180;51487;52.266;10.542;2024-03-17T05:17:22;101404.00;;;4.30
64960;BMP180;51487;52.266;10.542;2024-03-17T05:19:48;101412.00;;;4.10
64960;BMP180;51487;52.266;10.542;2024-03-17T05:22:13;101416.00;;;4.10
64960;BMP180;51487;52.266;10.542;2024-03-17T05:24:39;101414.00;;;4.20
64960;BMP180;51487;52.266;10.542;2024-03-17T05:27:04;101418.00;;;4.30
64960;BMP180;51487;52.266;10.542;2024-03-17T05:29:30;101418.00;;;4.20
64960;BMP180;51487;52.266;10.542;2024-03-17T05:31:56;101424.00;;;4.30
64960;BMP180;51487;52.266;10.542;2024-03-17T05:34:21;101427.00;;;4.40
64960;BMP180;51487;52.266;10.542;2024-03-17T05:36:50;101424.00;;;4.50
64960;BMP180;51487;52.266;10.542;2024-03-17T05:39:16;101435.00;;;4.40
64960;BMP180;51487;52.266;10.542;2024-03-17T05:41:42;101441.00;;;4.40
64960;BMP180;51487;52.266;10.542;2024-03-17T05:44:09;101440.00;;;4.30
64960;BMP180;51487;52.266;10.542;2024-03-17T05:46:34;101439.00;;;4.40
64960;BMP180;51487;52.266;10.542;2024-03-17T05:49:00;101441.00;;;4.40
64960;BMP180;51487;52.266;10.542;2024-03-17T05:51:25;101440.00;;;4.40
64960;BMP180;51487;52.266;10.542;2024-03-17T05:53:52;101444.00;;;4.40
64960;BMP180;51487;52.266;10.542;2024-03-17T05:56:18;101441.00;;;4.60
64960;BMP180;51487;52.266;10.542;2024-03-17T05:58:43;101439.00;;;4.60
64960;BMP180;51487;52.266;10.542;2024-03-17T06:01:09;101452.00;;;4.60
64960;BMP180;51487;52.266;10.542;2024-03-17T06:03:36;101456.00;;;4.60
64960;BMP180;51487;52.266;10.542;2024-03-17T06:06:03;101449.00;;;4.70
64960;BMP180;51487;52.266;10.542;2024-03-17T06:08:30;101452.00;;;4.50
64960;BMP180;51487;52.266;10.542;2024-03-17T06:10:56;101456.00;;;4.50
64960;BMP180;51487;52.266;10.542;2024-03-17T06:13:26;101459.00;;;4.50
64960;BMP180;51487;52.266;10.542;2024-03-17T06:15:51;101446.00;;;4.60
64960;BMP180;51487;52.266;10.542;2024-03-17T06:18:17;101444.00;;;4.80
64960;BMP180;51487;52.266;10.542;2024-03-17T06:20:44;101450.00;;;4.90
64960;BMP180;51487;52.266;10.542;2024-03-17T06:23:11;101449.00;;;5.00
64960;BMP180;51487;52.266;10.542;2024-03-17T06:25:40;101450.00;;;5.00
64960;BMP180;51487;52.266;10.542;2024-03-17T06:28:07;101457.00;;;5.00
64960;BMP180;51487;52.266;10.542;2024-03-17T06:30:35;101467.00;;;5.10
64960;BMP180;51487;52.266;10.542;2024-03-17T06:33:02;101468.00;;;5.20
64960;BMP180;51487;52.266;10.542;2024-03-17T06:35:27;101473.00;;;5.30
64960;BMP180;51487;52.266;10.542;2024-03-17T06:37:58;101475.00;;;5.50
64960;BMP180;51487;52.266;10.542;2024-03-17T06:40:25;101471.00;;;5.50
64960;BMP180;51487;52.266;10.542;2024-03-17T06:42:51;101466.00;;;5.60
64960;BMP180;51487;52.266;10.542;2024-03-17T06:45:17;101464.00;;;5.60
64960;BMP180;51487;52.266;10.542;2024-03-17T06:47:45;101463.00;;;5.70
64960;BMP180;51487;52.266;10.542;2024-03-17T06:50:11;101466.00;;;5.70
64960;BMP180;51487;52.266;10.542;2024-03-17T06:52:37;101457.00;;;5.70
64960;BMP180;51487;52.266;10.542;2024-03-17T06:55:04;101460.00;;;6.00
64960;BMP180;51487;52.266;10.542;2024-03-17T06:57:32;101466.00;;;5.90
64960;BMP180;51487;52.266;10.542;2024-03-17T06:59:59;101474.00;;;5.80
64960;BMP180;51487;52.266;10.542;2024-03-17T07:02:25;101463.00;;;5.80
64960;BMP180;51487;52.266;10.542;2024-03-17T07:04:50;101462.00;;;5.60
64960;BMP180;51487;52.266;10.542;2024-03-17T07:07:16;101475.00;;;5.80
64960;BMP180;51487;52.266;10.542;2024-03-17T07:09:41;101461.00;;;5.80
64960;BMP180;51487;52.266;10.542;2024-03-17T07:12:08;101453.00;;;5.80
64960;BMP180;51487;52.266;10.542;2024-03-17T07:14:34;101454.00;;;6.00
64960;BMP180;51487;52.266;10.542;2024-03-17T07:17:00;101458.00;;;6.10
64960;BMP180;51487;52.266;10.542;2024-03-17T07:19:26;101463.00;;;6.10
64960;BMP180;51487;52.266;10.542;2024-03-17T07:21:52;101460.00;;;6.20
64960;BMP180;51487;52.266;10.542;2024-03-17T07:24:17;101459.00;;;6.20
64960;BMP180;51487;52.266;10.542;2024-03-17T07:26:43;101454.00;;;6.20
64960;BMP180;51487;52.266;10.542;2024-03-17T07:29:08;101447.00;;;6.20
64960;BMP180;51487;52.266;10.542;2024-03-17T07:31:34;101450.00;;;6.20
64960;BMP180;51487;52.266;10.542;2024-03-17T07:34:00;101455.00;;;6.20
64960;BMP180;51487;52.266;10.542;2024-03-17T07:36:25;101455.00;;;6.40
64960;BMP180;51487;52.266;10.542;2024-03-17T07:38:51;101461.00;;;6.40
64960;BMP180;51487;52.266;10.542;2024-03-17T07:41:17;101461.00;;;6.50
64960;BMP180;51487;52.266;10.542;2024-03-17T07:43:44;101460.00;;;6.50
64960;BMP180;51487;52.266;10.542;2024-03-17T07:46:11;101461.00;;;6.60
64960;BMP180;51487;52.266;10.542;2024-03-17T07:48:39;101463.00;;;6.60
64960;BMP180;51487;52.266;10.542;2024-03-17T07:51:08;101460.00;;;6.70
64960;BMP180;51487;52.266;10.542;2024-03-17T07:53:39;101459.00;;;6.70
64960;BMP180;51487;52.266;10.542;2024-03-17T07:56:11;101465.00;;;6.50
64960;BMP180;51487;52.266;10.542;2024-03-17T07:58:39;101469.00;;;6.10
64960;BMP180;51487;52.266;10.542;2024-03-17T08:01:08;101455.00;;;6.30
64960;BMP180;51487;52.266;10.542;2024-03-17T08:03:40;101461.00;;;6.30
64960;BMP180;51487;52.266;10.542;2024-03-17T08:06:09;101458.00;;;6.30
64960;BMP180;51487;52.266;10.542;2024-03-17T08:08:36;101461.00;;;6.10
64960;BMP180;51487;52.266;10.542;2024-03-17T08:11:02;101460.00;;;6.20
64960;BMP180;51487;52.266;10.542;2024-03-17T08:13:29;101454.00;;;6.30
64960;BMP180;51487;52.266;10.542;2024-03-17T08:16:06;101454.00;;;6.40
64960;BMP180;51487;52.266;10.542;2024-03-17T08:18:33;101460.00;;;6.40
64960;BMP180;51487;52.266;10.542;2024-03-17T08:21:01;101460.00;;;6.50
64960;BMP180;51487;52.266;10.542;2024-03-17T08:23:29;101460.00;;;6.40
64960;BMP180;51487;52.266;10.542;2024-03-17T08:25:56;101463.00;;;6.60
64960;BMP180;51487;52.266;10.542;2024-03-17T08:28:24;101451.00;;;6.60
64960;BMP180;51487;52.266;10.542;2024-03-17T08:30:54;101458.00;;;6.70
64960;BMP180;51487;52.266;10.542;2024-03-17T08:33:21;101447.00;;;6.70
64960;BMP180;51487;52.266;10.542;2024-03-17T08:38:24;101455.00;;;7.10
64960;BMP180;51487;52.266;10.542;2024-03-17T08:40:52;101454.00;;;6.90
64960;BMP180;51487;52.266;10.542;2024-03-17T08:43:18;101448.00;;;7.00
64960;BMP180;51487;52.266;10.542;2024-03-17T08:45:45;101451.00;;;7.30
64960;BMP180;51487;52.266;10.542;2024-03-17T08:48:19;101447.00;;;7.50
64960;BMP180;51487;52.266;10.542;2024-03-17T08:50:51;101441.00;;;7.50
64960;BMP180;51487;52.266;10.542;2024-03-17T08:53:17;101447.00;;;7.70
64960;BMP180;51487;52.266;10.542;2024-03-17T08:55:43;101446.00;;;7.70
64960;BMP180;51487;52.266;10.542;2024-03-17T08:58:09;101448.00;;;7.50
64960;BMP180;51487;52.266;10.542;2024-03-17T09:00:35;101446.00;;;7.60
64960;BMP180;51487;52.266;10.542;2024-03-17T09:03:02;101438.00;;;7.70
64960;BMP180;51487;52.266;10.542;2024-03-17T09:05:33;101438.00;;;7.60
64960;BMP180;51487;52.266;10.542;2024-03-17T09:07:59;101434.00;;;7.60
64960;BMP180;51487;52.266;10.542;2024-03-17T09:10:24;101423.00;;;7.60
64960;BMP180;51487;52.266;10.542;2024-03-17T09:12:50;101420.00;;;7.70
64960;BMP180;51487;52.266;10.542;2024-03-17T09:15:15;101423.00;;;7.70
64960;BMP180;51487;52.266;10.542;2024-03-17T09:17:41;101425.00;;;7.50
64960;BMP180;51487;52.266;10.542;2024-03-17T09:20:07;101432.00;;;7.60
64960;BMP180;51487;52.266;10.542;2024-03-17T09:22:40;101426.00;;;7.70
64960;BMP180;51487;52.266;10.542;2024-03-17T09:25:09;101439.00;;;7.30
64960;BMP180;51487;52.266;10.542;2024-03-17T09:27:36;101442.00;;;7.20
64960;BMP180;51487;52.266;10.542;2024-03-17T09:30:03;101439.00;;;7.30
64960;BMP180;51487;52.266;10.542;2024-03-17T09:32:31;101438.00;;;7.80
64960;BMP180;51487;52.266;10.542;2024-03-17T09:34:57;101440.00;;;8.10
64960;BMP180;51487;52.266;10.542;2024-03-17T09:37:23;101440.00;;;8.30
64960;BMP180;51487;52.266;10.542;2024-03-17T09:39:48;101430.00;;;8.50
64960;BMP180;51487;52.266;10.542;2024-03-17T09:42:17;101436.00;;;8.70
64960;BMP180;51487;52.266;10.542;2024-03-17T09:44:48;101431.00;;;8.70
64960;BMP180;51487;52.266;10.542;2024-03-17T09:47:18;101428.00;;;8.70
64960;BMP180;51487;52.266;10.542;2024-03-17T09:49:48;101435.00;;;8.70
64960;BMP180;51487;52.266;10.542;2024-03-17T09:55:09;101438.00;;;8.20
64960;BMP180;51487;52.266;10.542;2024-03-17T09:57:38;101435.00;;;8.40
64960;BMP180;51487;52.266;10.542;2024-03-17T10:00:14;101439.00;;;8.40
64960;BMP180;51487;52.266;10.542;2024-03-17T10:02:45;101439.00;;;8.60
64960;BMP180;51487;52.266;10.542;2024-03-17T10:05:23;101443.00;;;8.70
64960;BMP180;51487;52.266;10.542;2024-03-17T10:07:50;101440.00;;;8.90
64960;BMP180;51487;52.266;10.542;2024-03-17T10:10:18;101439.00;;;9.00
64960;BMP180;51487;52.266;10.542;2024-03-17T10:12:51;101444.00;;;9.00
64960;BMP180;51487;52.266;10.542;2024-03-17T10:15:18;101432.00;;;8.80
64960;BMP180;51487;52.266;10.542;2024-03-17T10:17:45;101439.00;;;8.80
64960;BMP180;51487;52.266;10.542;2024-03-17T10:20:21;101436.00;;;9.00
64960;BMP180;51487;52.266;10.542;2024-03-17T10:23:04;101429.00;;;9.20
64960;BMP180;51487;52.266;10.542;2024-03-17T10:25:39;101436.00;;;9.30
64960;BMP180;51487;52.266;10.542;2024-03-17T10:28:15;101428.00;;;8.90
64960;BMP180;51487;52.266;10.542;2024-03-17T10:30:42;101423.00;;;9.30
64960;BMP180;51487;52.266;10.542;2024-03-17T10:33:23;101426.00;;;9.40
64960;BMP180;51487;52.266;10.542;2024-03-17T10:35:58;101434.00;;;9.50
64960;BMP180;51487;52.266;10.542;2024-03-17T10:38:29;101427.00;;;9.90
64960;BMP180;51487;52.266;10.542;2024-03-17T10:40:54;101429.00;;;9.70
64960;BMP180;51487;52.266;10.542;2024-03-17T10:43:20;101433.00;;;9.70
64960;BMP180;51487;52.266;10.542;2024-03-17T10:45:51;101437.00;;;9.90
64960;BMP180;51487;52.266;10.542;2024-03-17T10:48:20;101435.00;;;10.10
64960;BMP180;51487;52.266;10.542;2024-03-17T10:50:49;101441.00;;;10.00
64960;BMP180;51487;52.266;10.542;2024-03-17T10:53:20;101435.00;;;9.80
64960;BMP180;51487;52.266;10.542;2024-03-17T10:56:02;101438.00;;;10.10
64960;BMP180;51487;52.266;10.542;2024-03-17T10:58:38;101430.00;;;10.30
64960;BMP180;51487;52.266;10.542;2024-03-17T11:01:15;101432.00;;;10.30
64960;BMP180;51487;52.266;10.542;2024-03-17T11:03:41;101428.00;;;10.30
64960;BMP180;51487;52.266;10.542;2024-03-17T11:06:09;101421.00;;;10.40
64960;BMP180;51487;52.266;10.542;2024-03-17T11:08:36;101424.00;;;10.30
64960;BMP180;51487;52.266;10.542;2024-03-17T11:11:02;101429.00;;;10.20
64960;BMP180;51487;52.266;10.542;2024-03-17T11:13:30;101422.00;;;10.20
64960;BMP180;51487;52.266;10.542;2024-03-17T11:15:58;101425.00;;;10.00
64960;BMP180;51487;52.266;10.542;2024-03-17T11:21:07;101417.00;;;10.30
64960;BMP180;51487;52.266;10.542;2024-03-17T11:23:55;101426.00;;;10.40
64960;BMP180;51487;52.266;10.542;2024-03-17T11:26:33;101414.00;;;10.40
64960;BMP180;51487;52.266;10.542;2024-03-17T11:29:01;101421.00;;;9.90
64960;BMP180;51487;52.266;10.542;2024-03-17T11:31:46;101419.00;;;9.80
64960;BMP180;51487;52.266;10.542;2024-03-17T11:34:27;101419.00;;;9.60
64960;BMP180;51487;52.266;10.542;2024-03-17T11:36:58;101409.00;;;9.80
64960;BMP180;51487;52.266;10.542;2024-03-17T11:39:57;101417.00;;;9.60
64960;BMP180;51487;52.266;10.542;2024-03-17T11:42:23;101425.00;;;9.60
64960;BMP180;51487;52.266;10.542;2024-03-17T11:45:09;101420.00;;;9.50
64960;BMP180;51487;52.266;10.542;2024-03-17T11:47:41;101420.00;;;9.30
64960;BMP180;51487;52.266;10.542;2024-03-17T11:50:09;101415.00;;;9.30
64960;BMP180;51487;52.266;10.542;2024-03-17T11:52:38;101423.00;;;9.30
64960;BMP180;51487;52.266;10.542;2024-03-17T11:55:15;101419.00;;;9.10
64960;BMP180;51487;52.266;10.542;2024-03-17T11:57:43;101415.00;;;9.10
64960;BMP180;51487;52.266;10.542;2024-03-17T12:00:21;101419.00;;;9.10
64960;BMP180;51487;52.266;10.542;2024-03-17T12:02:49;101411.00;;;9.00
64960;BMP180;51487;52.266;10.542;2024-03-17T12:05:15;101408.00;;;8.50
64960;BMP180;51487;52.266;10.542;2024-03-17T12:07:44;101411.00;;;8.50
64960;BMP180;51487;52.266;10.542;2024-03-17T12:10:11;101409.00;;;8.50
64960;BMP180;51487;52.266;10.542;2024-03-17T12:12:38;101409.00;;;8.60
64960;BMP180;51487;52.266;10.542;2024-03-17T12:15:16;101403.00;;;8.30
64960;BMP180;51487;52.266;10.542;2024-03-17T12:17:43;101392.00;;;8.50
64960;BMP180;51487;52.266;10.542;2024-03-17T12:20:19;101390.00;;;8.70
64960;BMP180;51487;52.266;10.542;2024-03-17T12:22:46;101376.00;;;8.70
64960;BMP180;51487;52.266;10.542;2024-03-17T12:25:18;101380.00;;;8.80
64960;BMP180;51487;52.266;10.542;2024-03-17T12:27:45;101370.00;;;8.80
64960;BMP180;51487;52.266;10.542;2024-03-17T12:30:12;101368.00;;;8.90
64960;BMP180;51487;52.266;10.542;2024-03-17T12:32:38;101365.00;;;8.80
64960;BMP180;51487;52.266;10.542;2024-03-17T12:35:12;101363.00;;;9.00
64960;BMP180;51487;52.266;10.542;2024-03-17T12:37:40;101352.00;;;9.20
64960;BMP180;51487;52.266;10.542;2024-03-17T12:40:18;101358.00;;;9.30
64960;BMP180;51487;52.266;10.542;2024-03-17T12:42:49;101357.00;;;9.30
64960;BMP180;51487;52.266;10.542;2024-03-17T12:45:19;101349.00;;;9.30
64960;BMP180;51487;52.266;10.542;2024-03-17T12:47:48;101358.00;;;9.30
64960;BMP180;51487;52.266;10.542;2024-03-17T12:50:14;101355.00;;;9.30
64960;BMP180;51487;52.266;10.542;2024-03-17T12:52:40;101351.00;;;9.20
64960;BMP180;51487;52.266;10.542;2024-03-17T12:55:08;101352.00;;;9.20
64960;BMP180;51487;52.266;10.542;2024-03-17T12:58:06;101338.00;;;9.30
64960;BMP180;51487;52.266;10.542;2024-03-17T13:01:04;101337.00;;;9.30
64960;BMP180;51487;52.266;10.542;2024-03-17T13:03:35;101330.00;;;9.40
64960;BMP180;51487;52.266;10.542;2024-03-17T13:06:02;101333.00;;;9.50
64960;BMP180;51487;52.266;10.542;2024-03-17T13:08:31;101326.00;;;9.70
64960;BMP180;51487;52.266;10.542;2024-03-17T13:10:57;101330.00;;;9.70
64960;BMP180;51487;52.266;10.542;2024-03-17T13:13:23;101314.00;;;9.80
64960;BMP180;51487;52.266;10.542;2024-03-17T13:15:49;101321.00;;;9.70
64960;BMP180;51487;52.266;10.542;2024-03-17T13:18:17;101306.00;;;9.70
64960;BMP180;51487;52.266;10.542;2024-03-17T13:20:44;101315.00;;;9.80
64960;BMP180;51487;52.266;10.542;2024-03-17T13:23:10;101319.00;;;9.70
64960;BMP180;51487;52.266;10.542;2024-03-17T13:25:36;101312.00;;;9.70
64960;BMP180;51487;52.266;10.542;2024-03-17T13:28:04;101316.00;;;9.80
64960;BMP180;51487;52.266;10.542;2024-03-17T13:30:32;101308.00;;;10.00
64960;BMP180;51487;52.266;10.542;2024-03-17T13:33:02;101312.00;;;10.20
64960;BMP180;51487;52.266;10.542;2024-03-17T13:35:34;101319.00;;;10.20
64960;BMP180;51487;52.266;10.542;2024-03-17T13:38:07;101314.00;;;10.20
64960;BMP180;51487;52.266;10.542;2024-03-17T13:40:35;101316.00;;;10.30
64960;BMP180;51487;52.266;10.542;2024-03-17T13:43:03;101308.00;;;10.40
64960;BMP180;51487;52.266;10.542;2024-03-17T13:45:33;101312.00;;;10.40
64960;BMP180;51487;52.266;10.542;2024-03-17T13:48:04;101305.00;;;10.30
64960;BMP180;51487;52.266;10.542;2024-03-17T13:50:30;101309.00;;;10.30
64960;BMP180;51487;52.266;10.542;2024-03-17T13:52:57;101318.00;;;10.30
64960;BMP180;51487;52.266;10.542;2024-03-17T13:55:23;101304.00;;;10.30
64960;BMP180;51487;52.266;10.542;2024-03-17T13:57:54;101308.00;;;10.20
64960;BMP180;51487;52.266;10.542;2024-03-17T14:00:22;101304.00;;;10.20
64960;BMP180;51487;52.266;10.542;2024-03-17T14:02:50;101302.00;;;10.10
64960;BMP180;51487;52.266;10.542;2024-03-17T14:05:18;101306.00;;;10.20
64960;BMP180;51487;52.266;10.542;2024-03-17T14:07:45;101306.00;;;10.30
64960;BMP180;51487;52.266;10.542;2024-03-17T14:10:12;101301.00;;;10.20